This is the latest recevied weather packets stored in our database for station/object LU8AQL-WX. If no packets are shown the sender has not sent any weather packets the latest 10 day(s).
| Time | Temp. | Humidity | Pressure | Rain* | Wind** | Luminosity | Snow |
|---|---|---|---|---|---|---|---|
| 1777874405 | 13.33° C | 63% | 1015 hPa | 0 mm | - | - | - |
| 1777873804 | 13.33° C | 63% | 1015 hPa | 0 mm | - | - | - |
| 1777873203 | 13.33° C | 63% | 1015 hPa | 0 mm | - | - | - |
| 1777872602 | 13.33° C | 63% | 1015 hPa | 0 mm | - | - | - |
| 1777872001 | 13.33° C | 63% | 1015 hPa | 0 mm | - | - | - |
| 1777871400 | 13.33° C | 64% | 1015 hPa | 0 mm | - | - | - |
| 1777870800 | 12.78° C | 66% | 1015 hPa | 0 mm | - | - | - |
| 1777870199 | 12.78° C | 65% | 1015 hPa | 0 mm | - | - | - |
| 1777869598 | 13.33° C | 64% | 1015 hPa | 0 mm | - | - | - |
| 1777868997 | 13.33° C | 62% | 1015 hPa | 0 mm | - | - | - |
| 1777868395 | 13.33° C | 64% | 1015 hPa | 0 mm | - | - | - |
| 1777867795 | 13.33° C | 64% | 1015 hPa | 0 mm | - | - | - |
| 1777867194 | 12.78° C | 65% | 1015 hPa | 0 mm | - | - | - |
| 1777866593 | 12.78° C | 65% | 1015 hPa | 0 mm | - | - | - |
| 1777865992 | 12.78° C | 65% | 1015 hPa | 0 mm | - | - | - |
| 1777865391 | 13.33° C | 62% | 1016 hPa | 0 mm | - | - | - |
| 1777864790 | 13.89° C | 59% | 1016 hPa | 0 mm | - | - | - |
| 1777864188 | 14.44° C | 59% | 1016 hPa | 0 mm | - | - | - |
| 1777863588 | 15° C | 58% | 1016 hPa | 0 mm | - | - | - |
| 1777862987 | 15° C | 57% | 1016 hPa | 0 mm | - | - | - |
| 1777862385 | 15° C | 57% | 1016 hPa | 0 mm | - | - | - |
| 1777861784 | 15° C | 60% | 1016 hPa | 0 mm | - | - | - |
| 1777861183 | 15° C | 59% | 1016 hPa | 0 mm | - | - | - |
| 1777860582 | 15° C | 58% | 1016 hPa | 0 mm | - | - | - |
| 1777859981 | 14.44° C | 58% | 1016 hPa | 0 mm | - | - | - |
* Rain latest hour (hover to see other rain measurements)
** Current wind speed in m/s (hover to see current wind gust speed)